Ward Cove, AK (99928)

9:56 AM AKDT on October 23, 2014 (GMT -0800)
Ketchikan International | Change Station
CLOSE
Current Station
Airport
Location: Ketchikan,
Elevation: 95 ft
Nearby Weather Stations

Elev 95 ft 55.36 °N, 131.71 °W | Updated 3 minutes ago

Light Rain
Light Rain
47 °F
Feels Like 47 °F
N
4
Wind Variable Wind from SW

Today
High -- | Low -- °F
--% Chance of Precip.
Yesterday
High -- | Low -- °F
Precip. -- in
7:34 AM 5:27 PM
Waning Crescent, 0% visible
Pressure 29.58 in
Visibility 8.0 miles
Clouds Scattered Clouds 2300 ft
Mostly Cloudy 3800 ft
Overcast 6000 ft
Dew Point 44 °F
Humidity 90%
Rainfall 0.13 in
Snow Depth Not available.
UV 0 out of 12
Pollen Not available.
Air Quality Not available.
Flu Activity Sporadic
METAR PAKT 231753Z 23003KT 8SM -RA SCT023 BKN038 OVC060 08/07 A2958 RMK AO2 RAB25 SLP017 P0005 60007 T00830067 10089 20078 52031

More Conditions Fewer Conditions

Pressure 29.58 in
Visibility 8.0 miles
Clouds Scattered Clouds 2300 ft
Mostly Cloudy 3800 ft
Overcast 6000 ft
Dew Point 44 °F
Humidity 90%
Rainfall 0.13 in
Snow Depth Not available.
UV 0 out of 12
Pollen Not available.
Air Quality Not available.
Flu Activity Sporadic
METAR PAKT 231753Z 23003KT 8SM -RA SCT023 BKN038 OVC060 08/07 A2958 RMK AO2 RAB25 SLP017 P0005 60007 T00830067 10089 20078 52031

More Conditions Fewer Conditions

10-Day Weather Forecast

Almanac

Astronomy

Oct. 23, 2014 Rise Set
Actual Time 7:34 AM AKDT 5:27 PM AKDT
Civil Twilight 6:56 AM AKDT 6:05 PM AKDT
Nautical Twilight 6:13 AM AKDT 6:48 PM AKDT
Astronomical Twilight 5:30 AM AKDT 7:30 PM AKDT
Moon 7:18 AM AKDT 5:32 PM AKDT
Length of Visible Light 11h 09m
Length of Day
9h 53m
Tomorrow will be 4m 22s shorter.
Waning Crescent, 0% of the Moon is Illuminated
Today
Waning Crescent
Oct 23
New
Oct 30
First Quarter
Nov 6
Full
Nov 14
Last Quarter

Today's Extremes

State Highs State Lows

Community

WunderPhotos

Upload Photos

1,764,322 photos uploaded!

WunderBlogs® & News

By Dr. Jeff Masters
Director of Meteorology, Weather Underground
By Kari Strenfel
Meteorologist, Weather Underground
By Christopher C. Burt
Weather Historian, Weather Underground
October 23, 2014
October 23, 2014
October 23, 2014

Nearby

Snow Depth

Station Depth Elevation
Long Lake 0 in 820 ft
Upper Tsaina River 11 in 1750 ft
Moraine 0 in 2100 ft
Grouse Creek Divide 1 in 700 ft
Grandview 3 in 1100 ft

Earthquake Activity

City Distance Mag. Time & Date
No recent earthquake activity has been reported nearby.
Minimum magnitude displayed is 2.5.

Coastal Water Temperatures

Place Temperature
No Stations Reporting

Nearby Weather Stations